createdAt,value
2017-06-21T20:20:51.101Z,6.30
2017-06-21T20:23:18.631Z,7.00
2017-06-21T20:25:46.178Z,6.65
2017-06-21T20:28:13.702Z,7.65
2017-06-21T20:30:41.269Z,7.40
2017-06-21T20:33:08.850Z,7.35
2017-06-21T20:35:36.330Z,6.80
2017-06-21T20:38:03.849Z,7.22
2017-06-21T20:40:31.361Z,7.22
2017-06-21T20:42:58.927Z,8.15
2017-06-21T20:45:26.469Z,7.62
2017-06-21T20:47:53.967Z,7.80
2017-06-21T20:50:21.461Z,8.13
2017-06-21T20:52:48.987Z,8.38
2017-06-21T20:55:16.473Z,7.60
2017-06-21T20:57:43.970Z,8.30
2017-06-21T21:00:11.485Z,8.55
2017-06-21T21:02:38.978Z,8.10
2017-06-21T21:05:06.494Z,8.48
2017-06-21T21:07:33.985Z,8.00
2017-06-21T21:10:01.495Z,8.23
2017-06-21T21:12:29.003Z,7.05
2017-06-21T21:14:56.519Z,6.90
2017-06-21T21:17:24.013Z,6.22
2017-06-21T21:19:51.522Z,6.30
2017-06-21T21:22:19.062Z,6.18
2017-06-21T21:24:46.591Z,5.80
2017-06-21T21:27:14.101Z,5.82
2017-06-21T21:29:41.597Z,5.62
2017-06-21T21:32:09.101Z,5.68
2017-06-21T21:34:36.582Z,4.62
2017-06-21T21:37:04.105Z,5.50
2017-06-21T21:39:31.586Z,5.80
2017-06-21T21:41:59.078Z,4.90
2017-06-21T21:44:26.597Z,5.70
2017-06-21T21:46:54.081Z,5.80
2017-06-21T21:49:21.581Z,5.07
2017-06-21T21:51:49.070Z,6.37
2017-06-21T21:54:16.573Z,6.47
2017-06-21T21:56:44.081Z,7.50
2017-06-21T21:59:11.598Z,6.60
2017-06-21T22:01:39.088Z,7.40
2017-06-21T22:04:06.574Z,6.78
2017-06-21T22:06:34.087Z,7.60
2017-06-21T22:09:01.573Z,6.32
2017-06-21T22:11:29.073Z,7.60
2017-06-21T22:13:56.569Z,6.70
2017-06-21T22:16:24.074Z,8.30
2017-06-21T22:18:51.566Z,6.50
2017-06-21T22:21:19.078Z,7.82
2017-06-21T22:23:46.562Z,7.40
2017-06-21T22:26:14.050Z,7.32
2017-06-21T22:28:41.549Z,6.53
2017-06-21T22:31:09.033Z,7.25
2017-06-21T22:33:36.537Z,7.25
2017-06-21T22:36:04.021Z,7.28
2017-06-21T22:38:31.525Z,7.62
2017-06-21T22:40:59.013Z,6.93
2017-06-21T22:43:26.513Z,6.55
2017-06-21T22:45:54.014Z,6.97
2017-06-21T22:48:21.496Z,6.68
2017-06-21T22:50:48.998Z,7.93
2017-06-21T22:53:16.491Z,7.12
2017-06-21T22:55:43.997Z,7.22
2017-06-21T22:58:11.482Z,7.07
2017-06-21T23:00:38.998Z,7.45
2017-06-21T23:03:06.481Z,6.78
2017-06-21T23:05:33.999Z,7.15
2017-06-21T23:08:01.481Z,7.35
2017-06-21T23:10:28.973Z,7.28
2017-06-21T23:12:56.473Z,7.90
2017-06-21T23:15:23.962Z,7.15
2017-06-21T23:17:51.462Z,7.32
2017-06-21T23:20:18.946Z,7.32
2017-06-21T23:22:46.427Z,7.20
2017-06-21T23:25:13.932Z,7.78
2017-06-21T23:27:41.431Z,7.53
2017-06-21T23:30:08.929Z,6.85
2017-06-21T23:32:36.423Z,7.35
2017-06-21T23:35:03.905Z,7.78
2017-06-21T23:37:31.409Z,7.87
2017-06-21T23:39:58.889Z,7.37
2017-06-21T23:42:26.394Z,7.40
2017-06-21T23:44:53.883Z,7.00
2017-06-21T23:47:21.374Z,7.45
2017-06-21T23:49:48.873Z,8.25
2017-06-21T23:52:16.358Z,7.75
2017-06-21T23:54:43.858Z,7.15
2017-06-21T23:57:11.361Z,7.43
2017-06-21T23:59:38.871Z,7.90
